sensor_id;sensor_type;location;lat;lon;timestamp;P1;durP1;ratioP1;P2;durP2;ratioP2
21941;SDS011;11135;54.192;15.670;2024-02-26T00:01:47;3.63;;;1.60;;
21941;SDS011;11135;54.192;15.670;2024-02-26T00:05:13;5.40;;;2.20;;
21941;SDS011;11135;54.192;15.670;2024-02-26T00:08:38;3.10;;;1.85;;
21941;SDS011;11135;54.192;15.670;2024-02-26T00:12:04;4.40;;;2.33;;
21941;SDS011;11135;54.192;15.670;2024-02-26T00:15:33;3.30;;;1.92;;
21941;SDS011;11135;54.192;15.670;2024-02-26T00:18:59;5.00;;;2.60;;
21941;SDS011;11135;54.192;15.670;2024-02-26T00:22:25;3.97;;;2.15;;
21941;SDS011;11135;54.192;15.670;2024-02-26T00:25:50;7.00;;;2.90;;
21941;SDS011;11135;54.192;15.670;2024-02-26T00:29:16;5.32;;;2.10;;
21941;SDS011;11135;54.192;15.670;2024-02-26T00:32:44;3.85;;;2.13;;
21941;SDS011;11135;54.192;15.670;2024-02-26T00:36:10;4.85;;;2.75;;
21941;SDS011;11135;54.192;15.670;2024-02-26T00:39:36;10.95;;;6.85;;
21941;SDS011;11135;54.192;15.670;2024-02-26T00:43:01;26.08;;;18.55;;
21941;SDS011;11135;54.192;15.670;2024-02-26T00:46:27;22.75;;;13.60;;
21941;SDS011;11135;54.192;15.670;2024-02-26T00:49:55;10.18;;;5.35;;
21941;SDS011;11135;54.192;15.670;2024-02-26T00:53:21;6.10;;;3.30;;
21941;SDS011;11135;54.192;15.670;2024-02-26T00:56:47;8.63;;;3.83;;
21941;SDS011;11135;54.192;15.670;2024-02-26T01:00:13;7.88;;;2.97;;
21941;SDS011;11135;54.192;15.670;2024-02-26T01:03:39;4.18;;;2.05;;
21941;SDS011;11135;54.192;15.670;2024-02-26T01:07:08;3.70;;;2.05;;
21941;SDS011;11135;54.192;15.670;2024-02-26T01:10:35;5.57;;;2.40;;
21941;SDS011;11135;54.192;15.670;2024-02-26T01:14:01;4.05;;;2.17;;
21941;SDS011;11135;54.192;15.670;2024-02-26T01:17:27;3.72;;;2.13;;
21941;SDS011;11135;54.192;15.670;2024-02-26T01:20:52;4.30;;;2.33;;
21941;SDS011;11135;54.192;15.670;2024-02-26T01:24:21;4.20;;;1.65;;
21941;SDS011;11135;54.192;15.670;2024-02-26T01:27:46;4.82;;;2.08;;
21941;SDS011;11135;54.192;15.670;2024-02-26T01:31:15;4.40;;;1.75;;
21941;SDS011;11135;54.192;15.670;2024-02-26T01:34:41;3.25;;;1.73;;
21941;SDS011;11135;54.192;15.670;2024-02-26T01:38:06;3.33;;;1.77;;
21941;SDS011;11135;54.192;15.670;2024-02-26T01:41:35;3.53;;;1.73;;
21941;SDS011;11135;54.192;15.670;2024-02-26T01:45:01;4.85;;;2.10;;
21941;SDS011;11135;54.192;15.670;2024-02-26T01:48:26;5.35;;;2.45;;
21941;SDS011;11135;54.192;15.670;2024-02-26T01:51:52;4.05;;;2.33;;
21941;SDS011;11135;54.192;15.670;2024-02-26T01:55:18;6.80;;;3.03;;
21941;SDS011;11135;54.192;15.670;2024-02-26T01:58:47;6.13;;;3.60;;
21941;SDS011;11135;54.192;15.670;2024-02-26T02:02:13;5.97;;;3.20;;
21941;SDS011;11135;54.192;15.670;2024-02-26T02:05:42;6.30;;;3.15;;
21941;SDS011;11135;54.192;15.670;2024-02-26T02:09:08;7.20;;;3.42;;
21941;SDS011;11135;54.192;15.670;2024-02-26T02:12:34;5.03;;;3.00;;
21941;SDS011;11135;54.192;15.670;2024-02-26T02:16:05;5.85;;;3.45;;
21941;SDS011;11135;54.192;15.670;2024-02-26T02:19:31;7.55;;;3.72;;
21941;SDS011;11135;54.192;15.670;2024-02-26T02:22:59;8.18;;;4.65;;
21941;SDS011;11135;54.192;15.670;2024-02-26T02:26:25;6.38;;;3.88;;
21941;SDS011;11135;54.192;15.670;2024-02-26T02:29:51;8.50;;;3.78;;
21941;SDS011;11135;54.192;15.670;2024-02-26T02:33:17;6.82;;;3.40;;
21941;SDS011;11135;54.192;15.670;2024-02-26T02:36:51;6.75;;;3.55;;
21941;SDS011;11135;54.192;15.670;2024-02-26T02:40:20;6.13;;;3.22;;
21941;SDS011;11135;54.192;15.670;2024-02-26T02:43:46;4.85;;;3.22;;
21941;SDS011;11135;54.192;15.670;2024-02-26T02:47:11;5.85;;;3.20;;
21941;SDS011;11135;54.192;15.670;2024-02-26T02:50:37;5.28;;;3.22;;
21941;SDS011;11135;54.192;15.670;2024-02-26T02:54:03;5.50;;;3.05;;
21941;SDS011;11135;54.192;15.670;2024-02-26T02:57:31;6.78;;;3.22;;
21941;SDS011;11135;54.192;15.670;2024-02-26T03:01:03;7.15;;;3.95;;
21941;SDS011;11135;54.192;15.670;2024-02-26T03:04:29;8.02;;;4.45;;
21941;SDS011;11135;54.192;15.670;2024-02-26T03:07:55;7.10;;;4.05;;
21941;SDS011;11135;54.192;15.670;2024-02-26T03:11:21;7.70;;;4.30;;
21941;SDS011;11135;54.192;15.670;2024-02-26T03:14:51;10.55;;;4.25;;
21941;SDS011;11135;54.192;15.670;2024-02-26T03:18:17;7.38;;;4.20;;
21941;SDS011;11135;54.192;15.670;2024-02-26T03:21:42;7.28;;;4.07;;
21941;SDS011;11135;54.192;15.670;2024-02-26T03:25:08;7.18;;;3.40;;
21941;SDS011;11135;54.192;15.670;2024-02-26T03:28:34;7.18;;;3.30;;
21941;SDS011;11135;54.192;15.670;2024-02-26T03:32:02;7.70;;;3.42;;
21941;SDS011;11135;54.192;15.670;2024-02-26T03:35:28;7.45;;;4.20;;
21941;SDS011;11135;54.192;15.670;2024-02-26T03:38:54;6.75;;;4.28;;
21941;SDS011;11135;54.192;15.670;2024-02-26T03:42:19;7.32;;;3.80;;
21941;SDS011;11135;54.192;15.670;2024-02-26T03:45:45;7.35;;;4.40;;
21941;SDS011;11135;54.192;15.670;2024-02-26T03:49:13;8.05;;;4.57;;
21941;SDS011;11135;54.192;15.670;2024-02-26T03:52:40;6.15;;;4.15;;
21941;SDS011;11135;54.192;15.670;2024-02-26T03:56:06;8.05;;;4.95;;
21941;SDS011;11135;54.192;15.670;2024-02-26T03:59:32;7.30;;;4.78;;
21941;SDS011;11135;54.192;15.670;2024-02-26T04:02:58;8.68;;;4.90;;
21941;SDS011;11135;54.192;15.670;2024-02-26T04:06:27;8.75;;;5.05;;
21941;SDS011;11135;54.192;15.670;2024-02-26T04:09:55;7.47;;;4.25;;
21941;SDS011;11135;54.192;15.670;2024-02-26T04:13:24;8.52;;;4.90;;
21941;SDS011;11135;54.192;15.670;2024-02-26T04:16:50;8.75;;;4.32;;
21941;SDS011;11135;54.192;15.670;2024-02-26T04:20:17;7.13;;;4.20;;
21941;SDS011;11135;54.192;15.670;2024-02-26T04:23:45;8.00;;;5.03;;
21941;SDS011;11135;54.192;15.670;2024-02-26T04:27:11;8.07;;;4.90;;
21941;SDS011;11135;54.192;15.670;2024-02-26T04:30:37;11.45;;;4.78;;
21941;SDS011;11135;54.192;15.670;2024-02-26T04:34:03;9.27;;;5.20;;
21941;SDS011;11135;54.192;15.670;2024-02-26T04:37:33;8.18;;;5.18;;
21941;SDS011;11135;54.192;15.670;2024-02-26T04:41:02;8.07;;;4.60;;
21941;SDS011;11135;54.192;15.670;2024-02-26T04:44:28;7.15;;;4.75;;
21941;SDS011;11135;54.192;15.670;2024-02-26T04:47:54;11.82;;;5.60;;
21941;SDS011;11135;54.192;15.670;2024-02-26T04:51:20;9.85;;;5.32;;
21941;SDS011;11135;54.192;15.670;2024-02-26T04:54:46;8.43;;;5.20;;
21941;SDS011;11135;54.192;15.670;2024-02-26T04:58:15;8.55;;;5.80;;
21941;SDS011;11135;54.192;15.670;2024-02-26T05:01:41;11.15;;;5.63;;
21941;SDS011;11135;54.192;15.670;2024-02-26T05:05:08;8.43;;;5.32;;
21941;SDS011;11135;54.192;15.670;2024-02-26T05:08:35;7.50;;;4.47;;
21941;SDS011;11135;54.192;15.670;2024-02-26T05:12:03;8.15;;;4.82;;
21941;SDS011;11135;54.192;15.670;2024-02-26T05:15:32;11.93;;;5.43;;
21941;SDS011;11135;54.192;15.670;2024-02-26T05:18:57;9.85;;;5.10;;
21941;SDS011;11135;54.192;15.670;2024-02-26T05:22:24;8.20;;;5.57;;
21941;SDS011;11135;54.192;15.670;2024-02-26T05:25:50;10.52;;;5.55;;
21941;SDS011;11135;54.192;15.670;2024-02-26T05:29:16;7.80;;;4.75;;
21941;SDS011;11135;54.192;15.670;2024-02-26T05:32:44;8.38;;;5.03;;
21941;SDS011;11135;54.192;15.670;2024-02-26T05:36:17;6.72;;;4.57;;
21941;SDS011;11135;54.192;15.670;2024-02-26T05:43:10;7.82;;;4.63;;
21941;SDS011;11135;54.192;15.670;2024-02-26T05:46:38;10.63;;;5.05;;
21941;SDS011;11135;54.192;15.670;2024-02-26T05:50:08;7.30;;;4.70;;
21941;SDS011;11135;54.192;15.670;2024-02-26T05:53:35;9.15;;;5.28;;
21941;SDS011;11135;54.192;15.670;2024-02-26T05:57:01;8.73;;;4.45;;
21941;SDS011;11135;54.192;15.670;2024-02-26T06:00:27;7.85;;;4.72;;
21941;SDS011;11135;54.192;15.670;2024-02-26T06:03:53;9.43;;;5.18;;
21941;SDS011;11135;54.192;15.670;2024-02-26T06:07:21;11.18;;;5.53;;
21941;SDS011;11135;54.192;15.670;2024-02-26T06:10:47;10.90;;;4.95;;
21941;SDS011;11135;54.192;15.670;2024-02-26T06:14:13;8.93;;;5.70;;
21941;SDS011;11135;54.192;15.670;2024-02-26T06:17:40;8.68;;;5.82;;
21941;SDS011;11135;54.192;15.670;2024-02-26T06:21:08;10.60;;;5.50;;
21941;SDS011;11135;54.192;15.670;2024-02-26T06:24:37;7.95;;;4.97;;
21941;SDS011;11135;54.192;15.670;2024-02-26T06:28:03;8.55;;;5.30;;
21941;SDS011;11135;54.192;15.670;2024-02-26T06:31:29;9.95;;;5.60;;
21941;SDS011;11135;54.192;15.670;2024-02-26T06:34:55;10.68;;;5.28;;
21941;SDS011;11135;54.192;15.670;2024-02-26T06:38:21;11.07;;;6.05;;
21941;SDS011;11135;54.192;15.670;2024-02-26T06:41:50;10.27;;;5.90;;
21941;SDS011;11135;54.192;15.670;2024-02-26T06:45:22;9.43;;;5.20;;
21941;SDS011;11135;54.192;15.670;2024-02-26T06:48:48;9.95;;;6.13;;
21941;SDS011;11135;54.192;15.670;2024-02-26T06:52:17;10.48;;;6.28;;
21941;SDS011;11135;54.192;15.670;2024-02-26T06:55:43;11.85;;;6.85;;
21941;SDS011;11135;54.192;15.670;2024-02-26T06:59:11;12.98;;;6.38;;
21941;SDS011;11135;54.192;15.670;2024-02-26T07:02:37;9.05;;;5.57;;
21941;SDS011;11135;54.192;15.670;2024-02-26T07:06:03;10.23;;;6.00;;
21941;SDS011;11135;54.192;15.670;2024-02-26T07:09:29;9.57;;;6.53;;
21941;SDS011;11135;54.192;15.670;2024-02-26T07:12:55;9.93;;;6.05;;
21941;SDS011;11135;54.192;15.670;2024-02-26T07:16:24;9.50;;;6.07;;
21941;SDS011;11135;54.192;15.670;2024-02-26T07:19:49;7.93;;;5.97;;
21941;SDS011;11135;54.192;15.670;2024-02-26T07:23:15;9.30;;;5.82;;
21941;SDS011;11135;54.192;15.670;2024-02-26T07:26:41;10.57;;;6.53;;
21941;SDS011;11135;54.192;15.670;2024-02-26T07:30:07;10.98;;;5.85;;
21941;SDS011;11135;54.192;15.670;2024-02-26T07:33:36;11.05;;;6.28;;
21941;SDS011;11135;54.192;15.670;2024-02-26T07:37:03;9.45;;;6.88;;
21941;SDS011;11135;54.192;15.670;2024-02-26T07:40:29;9.93;;;6.20;;
21941;SDS011;11135;54.192;15.670;2024-02-26T07:43:54;12.32;;;6.88;;
21941;SDS011;11135;54.192;15.670;2024-02-26T07:47:20;11.15;;;6.78;;
21941;SDS011;11135;54.192;15.670;2024-02-26T07:50:48;9.35;;;6.22;;
21941;SDS011;11135;54.192;15.670;2024-02-26T07:54:14;10.25;;;6.70;;
21941;SDS011;11135;54.192;15.670;2024-02-26T07:57:42;8.25;;;5.47;;
21941;SDS011;11135;54.192;15.670;2024-02-26T08:01:07;8.77;;;6.65;;
21941;SDS011;11135;54.192;15.670;2024-02-26T08:04:33;9.77;;;6.13;;
21941;SDS011;11135;54.192;15.670;2024-02-26T08:08:01;10.00;;;6.38;;
21941;SDS011;11135;54.192;15.670;2024-02-26T08:11:27;9.25;;;6.40;;
21941;SDS011;11135;54.192;15.670;2024-02-26T08:14:54;10.05;;;6.63;;
21941;SDS011;11135;54.192;15.670;2024-02-26T08:18:20;8.63;;;6.07;;
21941;SDS011;11135;54.192;15.670;2024-02-26T08:21:46;8.85;;;5.57;;
21941;SDS011;11135;54.192;15.670;2024-02-26T08:25:14;9.02;;;5.60;;
21941;SDS011;11135;54.192;15.670;2024-02-26T08:28:40;9.30;;;5.72;;
21941;SDS011;11135;54.192;15.670;2024-02-26T08:32:07;7.88;;;5.20;;
21941;SDS011;11135;54.192;15.670;2024-02-26T08:35:32;8.50;;;5.18;;
21941;SDS011;11135;54.192;15.670;2024-02-26T08:38:58;7.65;;;4.70;;
21941;SDS011;11135;54.192;15.670;2024-02-26T08:42:26;9.50;;;4.50;;
21941;SDS011;11135;54.192;15.670;2024-02-26T08:45:52;8.60;;;5.10;;
21941;SDS011;11135;54.192;15.670;2024-02-26T08:49:19;8.27;;;3.92;;
21941;SDS011;11135;54.192;15.670;2024-02-26T08:52:46;7.53;;;4.80;;
21941;SDS011;11135;54.192;15.670;2024-02-26T08:56:13;7.95;;;5.07;;
21941;SDS011;11135;54.192;15.670;2024-02-26T08:59:43;7.72;;;5.20;;
21941;SDS011;11135;54.192;15.670;2024-02-26T09:03:09;7.20;;;4.97;;
21941;SDS011;11135;54.192;15.670;2024-02-26T09:06:35;9.25;;;5.78;;
21941;SDS011;11135;54.192;15.670;2024-02-26T09:10:00;8.43;;;5.18;;
21941;SDS011;11135;54.192;15.670;2024-02-26T09:13:28;10.30;;;6.00;;
21941;SDS011;11135;54.192;15.670;2024-02-26T09:16:56;8.32;;;6.32;;
21941;SDS011;11135;54.192;15.670;2024-02-26T09:20:22;8.13;;;5.45;;
21941;SDS011;11135;54.192;15.670;2024-02-26T09:23:48;8.93;;;5.32;;
21941;SDS011;11135;54.192;15.670;2024-02-26T09:27:14;8.95;;;6.20;;
21941;SDS011;11135;54.192;15.670;2024-02-26T09:30:40;8.77;;;6.22;;
21941;SDS011;11135;54.192;15.670;2024-02-26T09:34:08;8.95;;;6.20;;
21941;SDS011;11135;54.192;15.670;2024-02-26T09:37:34;9.57;;;6.45;;
21941;SDS011;11135;54.192;15.670;2024-02-26T09:41:00;11.75;;;7.55;;
21941;SDS011;11135;54.192;15.670;2024-02-26T09:44:26;14.00;;;8.05;;
21941;SDS011;11135;54.192;15.670;2024-02-26T09:47:58;11.88;;;7.68;;
21941;SDS011;11135;54.192;15.670;2024-02-26T09:51:26;12.25;;;7.22;;
21941;SDS011;11135;54.192;15.670;2024-02-26T09:54:52;12.98;;;7.97;;
21941;SDS011;11135;54.192;15.670;2024-02-26T09:58:17;12.02;;;8.35;;
21941;SDS011;11135;54.192;15.670;2024-02-26T10:01:44;12.63;;;8.32;;
21941;SDS011;11135;54.192;15.670;2024-02-26T10:05:10;11.32;;;7.90;;
21941;SDS011;11135;54.192;15.670;2024-02-26T10:08:41;12.60;;;8.38;;
21941;SDS011;11135;54.192;15.670;2024-02-26T10:12:08;12.48;;;7.72;;
21941;SDS011;11135;54.192;15.670;2024-02-26T10:15:35;12.27;;;8.05;;
21941;SDS011;11135;54.192;15.670;2024-02-26T10:19:00;10.88;;;7.30;;
21941;SDS011;11135;54.192;15.670;2024-02-26T10:22:27;9.30;;;7.15;;
21941;SDS011;11135;54.192;15.670;2024-02-26T10:25:55;12.68;;;7.60;;
21941;SDS011;11135;54.192;15.670;2024-02-26T10:29:21;9.95;;;7.57;;
21941;SDS011;11135;54.192;15.670;2024-02-26T10:32:47;12.07;;;7.55;;
21941;SDS011;11135;54.192;15.670;2024-02-26T10:36:13;12.27;;;8.05;;
21941;SDS011;11135;54.192;15.670;2024-02-26T10:39:39;12.65;;;8.45;;
21941;SDS011;11135;54.192;15.670;2024-02-26T10:43:14;11.97;;;7.93;;
21941;SDS011;11135;54.192;15.670;2024-02-26T10:46:41;12.45;;;8.30;;
21941;SDS011;11135;54.192;15.670;2024-02-26T10:50:06;10.35;;;7.75;;
21941;SDS011;11135;54.192;15.670;2024-02-26T10:53:33;10.77;;;7.53;;
21941;SDS011;11135;54.192;15.670;2024-02-26T10:56:58;10.43;;;6.75;;
21941;SDS011;11135;54.192;15.670;2024-02-26T11:00:30;8.98;;;6.60;;
21941;SDS011;11135;54.192;15.670;2024-02-26T11:03:56;10.93;;;7.43;;
21941;SDS011;11135;54.192;15.670;2024-02-26T11:07:24;9.20;;;6.55;;
21941;SDS011;11135;54.192;15.670;2024-02-26T11:10:52;9.50;;;6.32;;
21941;SDS011;11135;54.192;15.670;2024-02-26T11:14:18;9.25;;;7.65;;
21941;SDS011;11135;54.192;15.670;2024-02-26T11:17:46;10.77;;;7.63;;
21941;SDS011;11135;54.192;15.670;2024-02-26T11:21:13;12.07;;;8.05;;
21941;SDS011;11135;54.192;15.670;2024-02-26T11:24:41;10.02;;;7.45;;
21941;SDS011;11135;54.192;15.670;2024-02-26T11:28:11;13.43;;;8.20;;
21941;SDS011;11135;54.192;15.670;2024-02-26T11:31:38;9.70;;;7.18;;
21941;SDS011;11135;54.192;15.670;2024-02-26T11:35:08;10.48;;;7.25;;
21941;SDS011;11135;54.192;15.670;2024-02-26T11:38:36;9.98;;;7.10;;
21941;SDS011;11135;54.192;15.670;2024-02-26T11:42:04;12.25;;;8.23;;
21941;SDS011;11135;54.192;15.670;2024-02-26T11:45:47;11.45;;;7.93;;
21941;SDS011;11135;54.192;15.670;2024-02-26T11:56:44;9.38;;;6.63;;
21941;SDS011;11135;54.192;15.670;2024-02-26T12:00:10;8.82;;;6.43;;
21941;SDS011;11135;54.192;15.670;2024-02-26T12:03:39;10.73;;;7.20;;
21941;SDS011;11135;54.192;15.670;2024-02-26T12:07:06;9.18;;;6.65;;
21941;SDS011;11135;54.192;15.670;2024-02-26T12:10:32;8.50;;;6.55;;
21941;SDS011;11135;54.192;15.670;2024-02-26T12:14:04;11.95;;;6.95;;
21941;SDS011;11135;54.192;15.670;2024-02-26T12:17:30;9.13;;;6.57;;
21941;SDS011;11135;54.192;15.670;2024-02-26T12:20:58;10.25;;;6.20;;
21941;SDS011;11135;54.192;15.670;2024-02-26T12:24:24;9.32;;;6.35;;
21941;SDS011;11135;54.192;15.670;2024-02-26T12:27:50;10.63;;;7.82;;
21941;SDS011;11135;54.192;15.670;2024-02-26T12:31:19;9.25;;;6.78;;
21941;SDS011;11135;54.192;15.670;2024-02-26T12:34:44;9.40;;;6.22;;
21941;SDS011;11135;54.192;15.670;2024-02-26T12:38:10;10.85;;;6.32;;
21941;SDS011;11135;54.192;15.670;2024-02-26T12:41:37;8.68;;;5.97;;
21941;SDS011;11135;54.192;15.670;2024-02-26T12:45:04;7.70;;;5.50;;
21941;SDS011;11135;54.192;15.670;2024-02-26T12:48:34;8.00;;;5.80;;
21941;SDS011;11135;54.192;15.670;2024-02-26T12:52:02;9.82;;;5.78;;
21941;SDS011;11135;54.192;15.670;2024-02-26T12:55:28;8.02;;;5.47;;
21941;SDS011;11135;54.192;15.670;2024-02-26T12:58:56;10.02;;;6.13;;
21941;SDS011;11135;54.192;15.670;2024-02-26T13:02:22;7.70;;;5.72;;
21941;SDS011;11135;54.192;15.670;2024-02-26T13:05:53;7.93;;;5.93;;
21941;SDS011;11135;54.192;15.670;2024-02-26T13:09:19;7.93;;;5.60;;
21941;SDS011;11135;54.192;15.670;2024-02-26T13:12:45;8.25;;;6.35;;
21941;SDS011;11135;54.192;15.670;2024-02-26T13:16:13;7.95;;;5.47;;
21941;SDS011;11135;54.192;15.670;2024-02-26T13:19:48;8.60;;;6.00;;
21941;SDS011;11135;54.192;15.670;2024-02-26T13:23:17;8.85;;;6.25;;
21941;SDS011;11135;54.192;15.670;2024-02-26T13:26:42;9.30;;;6.32;;
21941;SDS011;11135;54.192;15.670;2024-02-26T13:30:09;6.85;;;5.10;;
21941;SDS011;11135;54.192;15.670;2024-02-26T13:33:35;8.32;;;5.68;;
21941;SDS011;11135;54.192;15.670;2024-02-26T13:37:01;7.30;;;5.13;;
21941;SDS011;11135;54.192;15.670;2024-02-26T13:40:30;7.93;;;5.63;;
21941;SDS011;11135;54.192;15.670;2024-02-26T13:43:57;7.57;;;5.00;;
21941;SDS011;11135;54.192;15.670;2024-02-26T13:47:23;7.43;;;5.47;;
21941;SDS011;11135;54.192;15.670;2024-02-26T13:50:51;11.95;;;4.82;;
21941;SDS011;11135;54.192;15.670;2024-02-26T13:54:17;7.90;;;5.38;;
21941;SDS011;11135;54.192;15.670;2024-02-26T13:57:45;7.85;;;5.10;;
21941;SDS011;11135;54.192;15.670;2024-02-26T14:01:11;9.32;;;5.40;;
21941;SDS011;11135;54.192;15.670;2024-02-26T14:04:37;9.25;;;6.10;;
21941;SDS011;11135;54.192;15.670;2024-02-26T14:08:11;10.40;;;6.07;;
21941;SDS011;11135;54.192;15.670;2024-02-26T14:11:37;10.10;;;6.00;;
21941;SDS011;11135;54.192;15.670;2024-02-26T14:15:08;7.75;;;5.55;;
21941;SDS011;11135;54.192;15.670;2024-02-26T14:18:35;8.98;;;6.30;;
21941;SDS011;11135;54.192;15.670;2024-02-26T14:22:01;10.75;;;6.40;;
21941;SDS011;11135;54.192;15.670;2024-02-26T14:25:26;9.32;;;6.05;;
21941;SDS011;11135;54.192;15.670;2024-02-26T14:28:58;9.20;;;5.63;;
21941;SDS011;11135;54.192;15.670;2024-02-26T14:32:26;9.40;;;5.78;;
21941;SDS011;11135;54.192;15.670;2024-02-26T14:35:54;8.98;;;6.30;;
21941;SDS011;11135;54.192;15.670;2024-02-26T14:39:19;9.20;;;6.00;;
21941;SDS011;11135;54.192;15.670;2024-02-26T14:42:46;8.88;;;6.20;;
21941;SDS011;11135;54.192;15.670;2024-02-26T14:46:12;9.02;;;5.90;;
21941;SDS011;11135;54.192;15.670;2024-02-26T14:49:40;11.73;;;7.07;;
21941;SDS011;11135;54.192;15.670;2024-02-26T14:53:08;10.60;;;7.35;;
21941;SDS011;11135;54.192;15.670;2024-02-26T14:56:39;12.07;;;7.82;;
21941;SDS011;11135;54.192;15.670;2024-02-26T15:00:06;10.60;;;7.70;;
21941;SDS011;11135;54.192;15.670;2024-02-26T15:03:32;12.80;;;9.02;;
21941;SDS011;11135;54.192;15.670;2024-02-26T15:07:01;13.70;;;9.40;;
21941;SDS011;11135;54.192;15.670;2024-02-26T15:10:27;14.20;;;9.52;;
21941;SDS011;11135;54.192;15.670;2024-02-26T15:13:52;14.18;;;10.40;;
21941;SDS011;11135;54.192;15.670;2024-02-26T15:17:18;12.88;;;9.50;;
21941;SDS011;11135;54.192;15.670;2024-02-26T15:20:44;13.82;;;9.30;;
21941;SDS011;11135;54.192;15.670;2024-02-26T15:24:13;18.60;;;10.45;;
21941;SDS011;11135;54.192;15.670;2024-02-26T15:27:42;16.10;;;10.18;;
21941;SDS011;11135;54.192;15.670;2024-02-26T15:31:07;16.02;;;10.57;;
21941;SDS011;11135;54.192;15.670;2024-02-26T15:34:36;16.25;;;10.32;;
21941;SDS011;11135;54.192;15.670;2024-02-26T15:38:02;13.82;;;9.82;;
21941;SDS011;11135;54.192;15.670;2024-02-26T15:41:31;15.20;;;9.82;;
21941;SDS011;11135;54.192;15.670;2024-02-26T15:44:57;16.35;;;10.23;;
21941;SDS011;11135;54.192;15.670;2024-02-26T15:48:22;14.13;;;10.23;;
21941;SDS011;11135;54.192;15.670;2024-02-26T15:51:49;15.15;;;11.10;;
21941;SDS011;11135;54.192;15.670;2024-02-26T15:55:15;14.85;;;9.10;;
21941;SDS011;11135;54.192;15.670;2024-02-26T15:58:46;14.27;;;9.90;;
21941;SDS011;11135;54.192;15.670;2024-02-26T16:02:11;16.30;;;10.38;;
21941;SDS011;11135;54.192;15.670;2024-02-26T16:05:38;15.35;;;10.13;;
21941;SDS011;11135;54.192;15.670;2024-02-26T16:09:04;15.70;;;8.90;;
21941;SDS011;11135;54.192;15.670;2024-02-26T16:12:32;16.17;;;9.68;;
21941;SDS011;11135;54.192;15.670;2024-02-26T16:16:04;15.98;;;9.32;;
21941;SDS011;11135;54.192;15.670;2024-02-26T16:19:32;13.23;;;9.15;;
21941;SDS011;11135;54.192;15.670;2024-02-26T16:22:58;13.55;;;8.98;;
21941;SDS011;11135;54.192;15.670;2024-02-26T16:26:27;12.35;;;8.32;;
21941;SDS011;11135;54.192;15.670;2024-02-26T16:29:53;13.95;;;8.30;;
21941;SDS011;11135;54.192;15.670;2024-02-26T16:33:21;13.88;;;9.40;;
21941;SDS011;11135;54.192;15.670;2024-02-26T16:36:48;13.75;;;8.88;;
21941;SDS011;11135;54.192;15.670;2024-02-26T16:40:14;13.85;;;9.25;;
21941;SDS011;11135;54.192;15.670;2024-02-26T16:43:41;13.38;;;8.90;;
21941;SDS011;11135;54.192;15.670;2024-02-26T16:47:07;12.60;;;8.13;;
21941;SDS011;11135;54.192;15.670;2024-02-26T16:50:34;13.23;;;8.35;;
21941;SDS011;11135;54.192;15.670;2024-02-26T16:54:00;13.70;;;8.70;;
21941;SDS011;11135;54.192;15.670;2024-02-26T16:57:26;13.18;;;9.02;;
21941;SDS011;11135;54.192;15.670;2024-02-26T17:00:52;13.35;;;7.78;;
21941;SDS011;11135;54.192;15.670;2024-02-26T17:04:18;15.35;;;9.07;;
21941;SDS011;11135;54.192;15.670;2024-02-26T17:07:47;12.32;;;8.40;;
21941;SDS011;11135;54.192;15.670;2024-02-26T17:11:12;14.02;;;8.48;;
21941;SDS011;11135;54.192;15.670;2024-02-26T17:14:38;12.88;;;8.50;;
21941;SDS011;11135;54.192;15.670;2024-02-26T17:18:04;14.25;;;8.15;;
21941;SDS011;11135;54.192;15.670;2024-02-26T17:21:35;15.80;;;9.63;;
21941;SDS011;11135;54.192;15.670;2024-02-26T17:25:04;13.07;;;8.57;;
21941;SDS011;11135;54.192;15.670;2024-02-26T17:28:30;12.60;;;8.57;;
21941;SDS011;11135;54.192;15.670;2024-02-26T17:31:58;12.70;;;8.60;;
21941;SDS011;11135;54.192;15.670;2024-02-26T17:35:29;14.05;;;9.82;;
21941;SDS011;11135;54.192;15.670;2024-02-26T17:38:55;16.60;;;11.27;;
21941;SDS011;11135;54.192;15.670;2024-02-26T17:42:23;15.60;;;11.02;;
21941;SDS011;11135;54.192;15.670;2024-02-26T17:45:50;15.10;;;10.43;;
21941;SDS011;11135;54.192;15.670;2024-02-26T17:49:16;16.92;;;12.10;;
21941;SDS011;11135;54.192;15.670;2024-02-26T17:52:46;17.83;;;12.75;;
21941;SDS011;11135;54.192;15.670;2024-02-26T17:56:15;18.95;;;11.15;;
21941;SDS011;11135;54.192;15.670;2024-02-26T17:59:43;21.50;;;12.23;;
21941;SDS011;11135;54.192;15.670;2024-02-26T18:03:09;17.75;;;11.40;;
21941;SDS011;11135;54.192;15.670;2024-02-26T18:06:35;17.95;;;13.20;;
21941;SDS011;11135;54.192;15.670;2024-02-26T18:10:01;20.20;;;13.50;;
21941;SDS011;11135;54.192;15.670;2024-02-26T18:13:31;21.52;;;13.70;;
21941;SDS011;11135;54.192;15.670;2024-02-26T18:17:01;19.35;;;12.80;;
21941;SDS011;11135;54.192;15.670;2024-02-26T18:20:26;19.13;;;14.02;;
21941;SDS011;11135;54.192;15.670;2024-02-26T18:23:52;21.13;;;14.75;;
21941;SDS011;11135;54.192;15.670;2024-02-26T18:27:18;23.67;;;14.85;;
21941;SDS011;11135;54.192;15.670;2024-02-26T18:30:43;20.23;;;13.35;;
21941;SDS011;11135;54.192;15.670;2024-02-26T18:34:12;21.98;;;14.48;;
21941;SDS011;11135;54.192;15.670;2024-02-26T18:37:39;21.30;;;13.23;;
21941;SDS011;11135;54.192;15.670;2024-02-26T18:41:06;23.05;;;13.93;;
21941;SDS011;11135;54.192;15.670;2024-02-26T18:44:31;19.88;;;12.88;;
21941;SDS011;11135;54.192;15.670;2024-02-26T18:47:57;20.85;;;13.32;;
21941;SDS011;11135;54.192;15.670;2024-02-26T18:51:26;20.65;;;13.70;;
21941;SDS011;11135;54.192;15.670;2024-02-26T18:54:52;22.95;;;14.35;;
21941;SDS011;11135;54.192;15.670;2024-02-26T18:58:18;22.25;;;14.30;;
21941;SDS011;11135;54.192;15.670;2024-02-26T19:01:44;20.02;;;12.48;;
21941;SDS011;11135;54.192;15.670;2024-02-26T19:05:10;21.20;;;13.85;;
21941;SDS011;11135;54.192;15.670;2024-02-26T19:08:38;16.15;;;11.55;;
21941;SDS011;11135;54.192;15.670;2024-02-26T19:12:06;20.88;;;13.48;;
21941;SDS011;11135;54.192;15.670;2024-02-26T19:15:32;21.73;;;13.95;;
21941;SDS011;11135;54.192;15.670;2024-02-26T19:18:58;21.15;;;13.45;;
21941;SDS011;11135;54.192;15.670;2024-02-26T19:22:25;19.42;;;12.98;;
21941;SDS011;11135;54.192;15.670;2024-02-26T19:25:59;18.92;;;12.90;;
21941;SDS011;11135;54.192;15.670;2024-02-26T19:29:27;20.15;;;13.27;;
21941;SDS011;11135;54.192;15.670;2024-02-26T19:32:53;27.77;;;16.88;;
21941;SDS011;11135;54.192;15.670;2024-02-26T19:36:19;25.40;;;16.13;;
21941;SDS011;11135;54.192;15.670;2024-02-26T19:39:51;25.23;;;15.68;;
21941;SDS011;11135;54.192;15.670;2024-02-26T19:43:23;23.27;;;16.10;;
21941;SDS011;11135;54.192;15.670;2024-02-26T19:46:49;27.65;;;17.23;;
21941;SDS011;11135;54.192;15.670;2024-02-26T19:50:15;22.73;;;15.98;;
21941;SDS011;11135;54.192;15.670;2024-02-26T19:53:40;24.23;;;14.82;;
21941;SDS011;11135;54.192;15.670;2024-02-26T19:57:06;22.65;;;15.30;;
21941;SDS011;11135;54.192;15.670;2024-02-26T20:00:35;22.05;;;14.18;;
21941;SDS011;11135;54.192;15.670;2024-02-26T20:04:01;23.73;;;15.52;;
21941;SDS011;11135;54.192;15.670;2024-02-26T20:07:26;24.13;;;14.70;;
21941;SDS011;11135;54.192;15.670;2024-02-26T20:10:53;23.90;;;15.38;;
21941;SDS011;11135;54.192;15.670;2024-02-26T20:14:19;23.50;;;15.00;;
21941;SDS011;11135;54.192;15.670;2024-02-26T20:17:51;20.70;;;14.70;;
21941;SDS011;11135;54.192;15.670;2024-02-26T20:21:17;25.35;;;14.85;;
21941;SDS011;11135;54.192;15.670;2024-02-26T20:24:43;26.05;;;16.88;;
21941;SDS011;11135;54.192;15.670;2024-02-26T20:28:09;24.25;;;14.05;;